createdAt,value
2018-07-23T00:01:07.154Z,12.00
2018-07-23T00:03:35.212Z,13.03
2018-07-23T00:06:03.248Z,11.93
2018-07-23T00:08:31.273Z,12.90
2018-07-23T00:10:59.311Z,13.77
2018-07-23T00:13:27.556Z,13.33
2018-07-23T00:15:55.582Z,13.97
2018-07-23T00:18:23.622Z,12.93
2018-07-23T00:20:51.658Z,13.73
2018-07-23T00:23:19.697Z,15.43
2018-07-23T00:25:47.757Z,16.53
2018-07-23T00:28:15.988Z,15.60
2018-07-23T00:30:44.061Z,15.47
2018-07-23T00:33:12.117Z,16.20
2018-07-23T00:35:40.145Z,13.83
2018-07-23T00:38:08.199Z,16.13
2018-07-23T00:40:36.237Z,15.27
2018-07-23T00:43:04.563Z,16.40
2018-07-23T00:45:32.618Z,13.70
2018-07-23T00:48:00.673Z,14.55
2018-07-23T00:50:28.921Z,15.90
2018-07-23T00:52:56.973Z,15.03
2018-07-23T00:55:25.001Z,14.73
2018-07-23T00:57:53.340Z,15.23
2018-07-23T01:00:21.377Z,14.25
2018-07-23T01:02:49.404Z,14.67
2018-07-23T01:05:17.453Z,12.87
2018-07-23T01:07:45.721Z,14.70
2018-07-23T01:10:13.765Z,14.40
2018-07-23T01:12:41.800Z,14.30
2018-07-23T01:15:09.840Z,13.60
2018-07-23T01:17:37.897Z,14.13
2018-07-23T01:20:06.229Z,13.87
2018-07-23T01:22:34.293Z,15.87
2018-07-23T01:25:02.343Z,14.50
2018-07-23T01:27:30.434Z,16.33
2018-07-23T01:29:58.508Z,18.50
2018-07-23T01:32:26.548Z,17.57
2018-07-23T01:34:54.609Z,16.90
2018-07-23T01:37:22.637Z,17.53
2018-07-23T01:39:50.828Z,18.90
2018-07-23T01:42:19.045Z,15.00
2018-07-23T01:44:47.098Z,15.73
2018-07-23T01:47:15.158Z,16.67
2018-07-23T01:49:43.216Z,15.07
2018-07-23T01:52:11.256Z,13.55
2018-07-23T01:54:39.379Z,13.77
2018-07-23T01:57:07.409Z,14.90
2018-07-23T01:59:35.459Z,16.57
2018-07-23T02:02:03.504Z,14.63
2018-07-23T02:04:35.361Z,13.33
2018-07-23T02:07:03.424Z,14.67
2018-07-23T02:09:31.518Z,16.23
2018-07-23T02:11:59.589Z,14.40
2018-07-23T02:14:27.642Z,15.17
2018-07-23T02:16:55.668Z,14.97
2018-07-23T02:19:23.719Z,13.33
2018-07-23T02:21:51.761Z,15.50
2018-07-23T02:24:20.069Z,17.67
2018-07-23T02:26:48.302Z,15.90
2018-07-23T02:29:16.344Z,16.75
2018-07-23T02:31:44.402Z,19.07
2018-07-23T02:34:12.457Z,17.23
2018-07-23T02:36:40.507Z,16.63
2018-07-23T02:39:09.776Z,18.40
2018-07-23T02:41:37.872Z,16.40
2018-07-23T02:44:06.057Z,18.13
2018-07-23T02:46:34.124Z,16.63
2018-07-23T02:49:02.149Z,15.73
2018-07-23T02:51:30.184Z,15.20
2018-07-23T02:56:48.724Z,16.77
2018-07-23T02:59:16.902Z,15.37
2018-07-23T03:01:45.268Z,15.63
2018-07-23T03:04:13.321Z,14.33
2018-07-23T03:06:41.356Z,16.47
2018-07-23T03:09:09.415Z,15.23
2018-07-23T03:11:37.776Z,16.07
2018-07-23T03:14:06.088Z,16.47
2018-07-23T03:16:34.308Z,16.63
2018-07-23T03:19:02.349Z,15.90
2018-07-23T03:21:30.443Z,16.13
2018-07-23T03:23:58.480Z,15.47
2018-07-23T03:26:26.522Z,16.87
2018-07-23T03:28:54.554Z,17.07
2018-07-23T03:31:22.581Z,15.57
2018-07-23T03:33:50.626Z,14.90
2018-07-23T03:36:18.688Z,14.97
2018-07-23T03:38:46.749Z,15.95
2018-07-23T03:41:14.812Z,14.65
2018-07-23T03:43:42.855Z,14.47
2018-07-23T03:46:10.906Z,15.83
2018-07-23T03:48:39.366Z,16.57
2018-07-23T03:51:08.089Z,14.83
2018-07-23T03:53:36.177Z,16.33
2018-07-23T03:56:04.869Z,13.90
2018-07-23T03:58:32.890Z,14.30
2018-07-23T04:01:00.979Z,15.17
2018-07-23T04:03:29.050Z,17.33
2018-07-23T04:05:57.055Z,14.30
2018-07-23T04:08:25.164Z,16.60
2018-07-23T04:10:53.269Z,16.43
2018-07-23T04:13:21.276Z,14.65
2018-07-23T04:15:49.393Z,15.40
2018-07-23T04:18:17.948Z,12.80
2018-07-23T04:20:46.009Z,12.67
2018-07-23T04:23:14.072Z,12.53
2018-07-23T04:25:42.121Z,13.07
2018-07-23T04:28:10.228Z,14.03
2018-07-23T04:30:38.263Z,14.87
2018-07-23T04:33:06.348Z,13.90
2018-07-23T04:35:34.404Z,13.67
2018-07-23T04:38:02.726Z,14.30
2018-07-23T04:40:30.780Z,10.87
2018-07-23T04:42:58.844Z,16.17
2018-07-23T04:45:26.895Z,14.93
2018-07-23T04:47:54.964Z,15.60
2018-07-23T04:50:23.029Z,17.07
2018-07-23T04:52:51.290Z,13.93
2018-07-23T04:55:19.331Z,14.70
2018-07-23T04:57:53.769Z,14.80
2018-07-23T05:00:21.846Z,14.73
2018-07-23T05:02:49.944Z,17.23
2018-07-23T05:05:18.016Z,19.73
2018-07-23T05:07:46.127Z,18.47
2018-07-23T05:10:14.164Z,19.20
2018-07-23T05:12:42.241Z,25.03
2018-07-23T05:15:10.273Z,26.40
2018-07-23T05:17:38.401Z,24.03
2018-07-23T05:20:06.477Z,24.30
2018-07-23T05:22:34.590Z,23.47
2018-07-23T05:25:02.678Z,23.93
2018-07-23T05:27:30.746Z,25.53
2018-07-23T05:29:58.777Z,22.50
2018-07-23T05:32:26.835Z,26.60
2018-07-23T05:34:54.900Z,26.13
2018-07-23T05:37:22.944Z,23.00
2018-07-23T05:39:51.043Z,23.52
2018-07-23T05:42:19.095Z,25.43
2018-07-23T05:44:50.295Z,24.37
2018-07-23T05:47:18.332Z,26.03
2018-07-23T05:49:46.556Z,23.07
2018-07-23T05:52:14.627Z,22.42
2018-07-23T05:54:42.997Z,24.10
2018-07-23T05:57:11.088Z,22.60
2018-07-23T05:59:39.307Z,22.37
2018-07-23T06:02:07.542Z,22.63
2018-07-23T06:04:35.585Z,25.40
2018-07-23T06:07:03.853Z,25.20
2018-07-23T06:09:31.701Z,25.07
2018-07-23T06:11:59.748Z,24.80
2018-07-23T06:14:27.942Z,25.47
2018-07-23T06:16:57.133Z,23.33
2018-07-23T06:19:25.200Z,24.97
2018-07-23T06:21:53.247Z,24.57
2018-07-23T06:24:21.272Z,22.30
2018-07-23T06:26:49.292Z,22.03
2018-07-23T06:29:17.329Z,21.63
2018-07-23T06:31:45.573Z,23.53
2018-07-23T06:34:13.602Z,20.70
2018-07-23T06:36:41.627Z,21.53
2018-07-23T06:39:10.849Z,21.77
2018-07-23T06:41:39.356Z,22.47
2018-07-23T06:44:07.831Z,17.90
2018-07-23T06:46:36.060Z,19.57
2018-07-23T06:49:05.327Z,17.90
2018-07-23T06:51:33.354Z,16.23
2018-07-23T06:54:01.450Z,17.00
2018-07-23T06:56:29.442Z,17.43
2018-07-23T06:58:57.512Z,17.50
2018-07-23T07:01:25.532Z,15.18
2018-07-23T07:03:53.559Z,14.57
2018-07-23T07:06:21.965Z,15.70
2018-07-23T07:08:49.960Z,18.37
2018-07-23T07:11:18.004Z,16.23
2018-07-23T07:13:46.050Z,15.33
2018-07-23T07:16:14.065Z,13.47
2018-07-23T07:18:42.089Z,14.43
2018-07-23T07:21:16.772Z,14.15
2018-07-23T07:23:44.927Z,14.50
2018-07-23T07:26:12.954Z,13.67
2018-07-23T07:28:41.001Z,13.43
2018-07-23T07:31:09.051Z,12.75
2018-07-23T07:33:37.118Z,12.57
2018-07-23T07:36:05.250Z,15.73
2018-07-23T07:38:33.305Z,16.30
2018-07-23T07:41:01.343Z,15.83
2018-07-23T07:43:29.368Z,14.97
2018-07-23T07:45:57.408Z,13.60
2018-07-23T07:48:25.454Z,13.47
2018-07-23T07:50:53.496Z,13.73
2018-07-23T07:53:21.544Z,11.60
2018-07-23T07:55:49.828Z,12.30
2018-07-23T07:58:17.909Z,10.43
2018-07-23T08:00:46.000Z,11.33
2018-07-23T08:03:14.056Z,10.60
2018-07-23T08:05:42.296Z,12.10
2018-07-23T08:08:10.488Z,13.20
2018-07-23T08:10:38.575Z,12.80
2018-07-23T08:13:06.653Z,12.33
2018-07-23T08:15:34.716Z,12.33
2018-07-23T08:18:02.959Z,11.40
2018-07-23T08:20:31.034Z,10.70
2018-07-23T08:22:59.070Z,7.53
2018-07-23T08:25:27.298Z,9.60
2018-07-23T08:27:55.364Z,8.13
2018-07-23T08:30:23.384Z,10.17
2018-07-23T08:32:51.489Z,8.80
2018-07-23T08:35:19.538Z,8.33
2018-07-23T08:37:47.577Z,8.63
2018-07-23T08:40:15.621Z,6.87
2018-07-23T08:42:43.793Z,7.40
2018-07-23T08:45:11.836Z,6.83
2018-07-23T08:47:39.872Z,8.00
2018-07-23T08:50:07.925Z,7.60
2018-07-23T08:52:36.140Z,8.23
2018-07-23T08:55:04.222Z,8.93
2018-07-23T08:57:32.261Z,6.57
2018-07-23T09:00:00.478Z,7.77
2018-07-23T09:02:28.679Z,8.23
2018-07-23T09:04:56.712Z,7.70
2018-07-23T09:07:24.848Z,9.10
2018-07-23T09:09:53.180Z,7.67
2018-07-23T09:12:21.216Z,8.47
2018-07-23T09:14:49.278Z,7.83
2018-07-23T09:17:17.656Z,8.10
2018-07-23T09:19:45.789Z,8.17
2018-07-23T09:22:13.863Z,8.63
2018-07-23T09:24:41.985Z,7.83
2018-07-23T09:27:10.034Z,7.78
2018-07-23T09:29:38.351Z,7.63
2018-07-23T09:32:06.436Z,6.87
2018-07-23T09:34:34.486Z,8.30
2018-07-23T09:37:02.530Z,7.10
2018-07-23T09:39:30.640Z,7.13
2018-07-23T09:41:58.840Z,7.13
2018-07-23T09:44:26.869Z,6.77
2018-07-23T09:46:54.938Z,6.17
2018-07-23T09:49:22.971Z,6.10
2018-07-23T09:51:51.009Z,6.57
2018-07-23T09:54:19.053Z,5.70
2018-07-23T09:56:47.080Z,6.40
2018-07-23T09:59:15.144Z,5.10
2018-07-23T10:01:43.201Z,5.03
2018-07-23T10:04:11.225Z,4.62
2018-07-23T10:06:39.248Z,4.47
2018-07-23T10:09:08.912Z,4.23
2018-07-23T10:11:36.933Z,4.87
2018-07-23T10:14:05.540Z,5.30
2018-07-23T10:16:33.677Z,5.20
2018-07-23T10:19:01.942Z,5.23
2018-07-23T10:21:30.089Z,5.77
2018-07-23T10:23:58.128Z,5.20
2018-07-23T10:26:26.451Z,5.30
2018-07-23T10:28:54.545Z,3.83
2018-07-23T10:31:22.770Z,4.90
2018-07-23T10:33:51.013Z,5.55
2018-07-23T10:36:19.093Z,5.33
2018-07-23T10:38:47.121Z,6.53
2018-07-23T10:41:15.176Z,5.33
2018-07-23T10:43:43.648Z,5.40
2018-07-23T10:46:18.391Z,5.70
2018-07-23T10:48:46.469Z,6.80
2018-07-23T10:51:14.504Z,5.50
2018-07-23T10:53:42.532Z,6.17
2018-07-23T10:56:10.573Z,5.97
2018-07-23T10:58:38.612Z,7.20
2018-07-23T11:01:06.625Z,5.50
2018-07-23T11:03:34.796Z,6.53
2018-07-23T11:06:02.817Z,5.60
2018-07-23T11:08:30.850Z,4.47
2018-07-23T11:10:59.131Z,5.83
2018-07-23T11:13:27.176Z,5.10
2018-07-23T11:15:55.257Z,6.40
2018-07-23T11:18:23.280Z,5.03
2018-07-23T11:20:51.361Z,5.73
2018-07-23T11:23:19.412Z,5.47
2018-07-23T11:25:47.468Z,4.80
2018-07-23T11:28:15.525Z,6.70
2018-07-23T11:30:43.548Z,5.60
2018-07-23T11:33:11.868Z,6.20
2018-07-23T11:35:39.893Z,6.67
2018-07-23T11:38:08.204Z,6.67
2018-07-23T11:40:36.297Z,6.67
2018-07-23T11:43:05.024Z,5.00
2018-07-23T11:45:33.053Z,4.97
2018-07-23T11:48:01.097Z,5.00
2018-07-23T11:50:29.135Z,5.23
2018-07-23T11:52:57.180Z,5.30
2018-07-23T11:55:25.237Z,5.00
2018-07-23T11:57:53.272Z,4.80
2018-07-23T12:00:21.311Z,4.13
2018-07-23T12:02:49.533Z,4.77
2018-07-23T12:05:17.552Z,4.40
2018-07-23T12:07:45.666Z,5.40
2018-07-23T12:10:13.723Z,5.10
2018-07-23T12:12:41.757Z,5.07
2018-07-23T12:15:09.800Z,4.27
2018-07-23T12:17:37.861Z,4.70
2018-07-23T12:20:06.205Z,4.50
2018-07-23T12:22:34.244Z,4.90
2018-07-23T12:25:02.377Z,4.30
2018-07-23T12:27:30.536Z,4.77
2018-07-23T12:29:58.909Z,4.43
2018-07-23T12:32:26.983Z,5.47
2018-07-23T12:34:54.957Z,4.13
2018-07-23T12:37:23.001Z,4.93
2018-07-23T12:39:51.088Z,4.27
2018-07-23T12:42:19.092Z,4.30
2018-07-23T12:44:47.144Z,4.00
2018-07-23T12:47:15.222Z,4.90
2018-07-23T12:49:43.245Z,4.80
2018-07-23T12:52:11.271Z,4.00
2018-07-23T12:54:39.333Z,3.90
2018-07-23T12:57:07.357Z,4.80
2018-07-23T12:59:35.433Z,4.00
2018-07-23T13:02:03.427Z,4.00
2018-07-23T13:04:31.449Z,4.40
2018-07-23T13:06:59.500Z,3.70
2018-07-23T13:09:27.530Z,4.10
2018-07-23T13:11:55.590Z,4.80
2018-07-23T13:14:23.621Z,4.40
2018-07-23T13:16:51.834Z,4.50
2018-07-23T13:19:19.861Z,3.80
2018-07-23T13:21:48.000Z,4.60
2018-07-23T13:24:16.025Z,4.70
2018-07-23T13:26:44.066Z,4.77
2018-07-23T13:29:12.316Z,4.15
2018-07-23T13:31:40.345Z,4.47
2018-07-23T13:34:08.489Z,4.60
2018-07-23T13:36:36.594Z,4.03
2018-07-23T13:39:07.867Z,4.33
2018-07-23T13:41:35.888Z,4.60
2018-07-23T13:44:04.745Z,4.00
2018-07-23T13:46:32.872Z,4.70
2018-07-23T13:49:01.269Z,8.03
2018-07-23T13:51:29.305Z,4.73
2018-07-23T13:53:57.328Z,4.03
2018-07-23T13:56:25.356Z,4.07
2018-07-23T13:58:53.388Z,6.03
2018-07-23T14:01:21.417Z,4.40
2018-07-23T14:03:49.443Z,3.90
2018-07-23T14:06:17.473Z,6.67
2018-07-23T14:08:45.503Z,4.73
2018-07-23T14:11:13.528Z,4.17
2018-07-23T14:13:41.577Z,5.60
2018-07-23T14:16:09.979Z,5.43
2018-07-23T14:18:37.997Z,4.70
2018-07-23T14:21:06.185Z,4.00
2018-07-23T14:23:34.216Z,4.10
2018-07-23T14:26:02.581Z,5.67
2018-07-23T14:28:30.661Z,6.00
2018-07-23T14:30:58.912Z,4.40
2018-07-23T14:33:26.994Z,4.53
2018-07-23T14:35:55.167Z,5.80
2018-07-23T14:38:23.210Z,8.20
2018-07-23T14:40:51.292Z,4.83
2018-07-23T14:43:19.557Z,5.90
2018-07-23T14:45:47.585Z,7.60
2018-07-23T14:48:15.625Z,6.05
2018-07-23T14:50:43.649Z,4.93
2018-07-23T14:53:11.793Z,5.87
2018-07-23T14:55:39.793Z,4.40
2018-07-23T14:58:07.826Z,5.97
2018-07-23T15:00:35.847Z,6.77
2018-07-23T15:03:03.992Z,6.83
2018-07-23T15:05:32.063Z,6.17
2018-07-23T15:08:00.081Z,5.70
2018-07-23T15:10:28.113Z,4.63
2018-07-23T15:12:56.130Z,3.60
2018-07-23T15:15:24.146Z,3.53
2018-07-23T15:17:52.166Z,4.03
2018-07-23T15:20:20.200Z,4.93
2018-07-23T15:22:48.225Z,3.23
2018-07-23T15:25:16.294Z,3.80
2018-07-23T15:27:44.327Z,8.30
2018-07-23T15:30:12.337Z,6.17
2018-07-23T15:32:40.360Z,4.10
2018-07-23T15:35:08.392Z,3.63
2018-07-23T15:37:36.643Z,3.47
2018-07-23T15:40:05.029Z,3.57
2018-07-23T15:42:33.067Z,3.53
2018-07-23T15:45:01.448Z,3.60
2018-07-23T15:47:29.392Z,3.23
2018-07-23T15:49:57.605Z,3.00
2018-07-23T15:52:25.635Z,3.53
2018-07-23T15:54:54.100Z,3.33
2018-07-23T15:57:22.120Z,8.15
2018-07-23T15:59:50.293Z,11.77
2018-07-23T18:11:45.287Z,3.43
2018-07-23T18:14:13.321Z,2.98
2018-07-23T18:16:41.379Z,2.87
2018-07-23T18:19:09.432Z,5.47
2018-07-23T18:21:37.451Z,4.17
2018-07-23T18:24:05.489Z,3.73
2018-07-23T18:26:33.771Z,3.70
2018-07-23T18:29:01.973Z,3.57
2018-07-23T18:31:31.047Z,3.53
2018-07-23T18:33:59.170Z,3.20
2018-07-23T18:36:27.231Z,3.40
2018-07-23T18:38:55.415Z,3.47
2018-07-23T18:41:23.455Z,3.87
2018-07-23T18:43:51.491Z,4.70
2018-07-23T18:46:19.536Z,5.87
2018-07-23T18:49:24.636Z,4.43
2018-07-23T18:51:53.404Z,4.30
2018-07-23T18:54:22.491Z,4.47
2018-07-23T18:56:52.525Z,3.90
2018-07-23T18:59:20.815Z,3.75
2018-07-23T19:01:49.762Z,3.20
2018-07-23T19:04:17.869Z,3.20
2018-07-23T19:06:45.897Z,3.70
2018-07-23T19:09:15.157Z,3.20
2018-07-23T19:11:44.427Z,3.67
2018-07-23T19:14:13.173Z,3.90
2018-07-23T19:16:41.660Z,7.27
2018-07-23T19:19:09.731Z,8.37
2018-07-23T19:21:37.769Z,7.43
2018-07-23T19:24:05.783Z,5.63
2018-07-23T19:26:33.821Z,4.80
2018-07-23T19:29:01.858Z,5.00
2018-07-23T19:31:30.215Z,3.90
2018-07-23T19:33:59.240Z,3.77
2018-07-23T19:36:27.613Z,3.40
2018-07-23T19:38:56.092Z,3.17
2018-07-23T19:41:24.303Z,3.40
2018-07-23T19:43:54.296Z,4.20
2018-07-23T19:46:22.388Z,3.60
2018-07-23T19:48:50.471Z,4.00
2018-07-23T19:51:18.498Z,3.50
2018-07-23T19:53:46.545Z,3.67
2018-07-23T19:56:14.596Z,4.30
2018-07-23T19:58:43.116Z,4.30
2018-07-23T20:01:11.290Z,4.13
2018-07-23T20:03:39.342Z,3.63
2018-07-23T20:06:07.398Z,6.17
2018-07-23T20:08:35.430Z,6.13
2018-07-23T20:11:04.515Z,5.45
2018-07-23T20:13:32.548Z,5.23
2018-07-23T20:16:00.600Z,4.07
2018-07-23T20:18:28.632Z,4.43
2018-07-23T20:20:56.731Z,4.20
2018-07-23T20:23:24.927Z,6.07
2018-07-23T20:25:52.960Z,6.10
2018-07-23T20:28:21.030Z,7.65
2018-07-23T20:30:49.043Z,7.80
2018-07-23T20:33:17.089Z,6.53
2018-07-23T20:35:45.124Z,5.80
2018-07-23T20:38:13.193Z,6.15
2018-07-23T20:40:41.295Z,5.67
2018-07-23T20:43:09.239Z,5.60
2018-07-23T20:45:37.323Z,5.27
2018-07-23T20:48:05.433Z,4.93
2018-07-23T20:50:33.454Z,4.60
2018-07-23T20:53:01.488Z,4.37
2018-07-23T20:55:29.694Z,5.20
2018-07-23T20:57:57.707Z,5.63
2018-07-23T21:00:25.798Z,5.00
2018-07-23T21:02:53.769Z,4.47
2018-07-23T21:05:21.801Z,4.90
2018-07-23T21:07:49.884Z,5.37
2018-07-23T21:10:17.972Z,4.70
2018-07-23T21:12:46.012Z,4.90
2018-07-23T21:15:14.072Z,4.85
2018-07-23T21:17:42.124Z,5.53
2018-07-23T21:20:10.563Z,4.90
2018-07-23T21:22:38.916Z,5.80
2018-07-23T21:25:07.120Z,5.17
2018-07-23T21:27:35.151Z,6.17
2018-07-23T21:30:03.342Z,5.63
2018-07-23T21:32:31.462Z,5.27
2018-07-23T21:34:59.416Z,5.90
2018-07-23T21:37:27.456Z,5.10
2018-07-23T21:39:55.502Z,5.23
2018-07-23T21:42:23.551Z,4.37
2018-07-23T21:44:51.628Z,5.50
2018-07-23T21:47:19.668Z,5.35
2018-07-23T21:49:47.703Z,6.43
2018-07-23T21:52:15.739Z,5.92
2018-07-23T21:54:43.839Z,6.37
2018-07-23T21:57:11.941Z,4.70
2018-07-23T21:59:39.987Z,4.93
2018-07-23T22:02:08.180Z,4.77
2018-07-23T22:04:36.205Z,4.60
2018-07-23T22:07:05.196Z,4.47
2018-07-23T22:09:33.260Z,4.43
2018-07-23T22:12:01.341Z,4.37
2018-07-23T22:14:29.356Z,5.20
2018-07-23T22:16:57.391Z,4.20
2018-07-23T22:19:25.431Z,4.93
2018-07-23T22:21:53.468Z,4.87
2018-07-23T22:24:21.501Z,4.70
2018-07-23T22:26:49.543Z,4.40
2018-07-23T22:29:17.563Z,4.50
2018-07-23T22:31:45.601Z,4.90
2018-07-23T22:34:13.620Z,5.20
2018-07-23T22:36:41.741Z,5.10
2018-07-23T22:39:10.962Z,5.42
2018-07-23T22:41:39.489Z,5.07
2018-07-23T22:44:07.620Z,5.13
2018-07-23T22:46:35.981Z,4.70
2018-07-23T22:49:04.532Z,5.15
2018-07-23T22:51:32.567Z,5.10
2018-07-23T22:54:00.644Z,4.93
2018-07-23T22:56:28.694Z,5.07
2018-07-23T22:58:56.696Z,5.00
2018-07-23T23:01:24.731Z,4.70
2018-07-23T23:03:52.740Z,5.10
2018-07-23T23:06:20.768Z,4.90
2018-07-23T23:08:48.828Z,5.00
2018-07-23T23:11:16.849Z,5.20
2018-07-23T23:13:44.873Z,4.80
2018-07-23T23:16:12.900Z,5.78
2018-07-23T23:18:40.923Z,5.27
2018-07-23T23:21:08.988Z,5.45
2018-07-23T23:23:37.022Z,5.40
2018-07-23T23:26:05.035Z,5.17
2018-07-23T23:28:33.059Z,5.47
2018-07-23T23:31:01.081Z,5.62
2018-07-23T23:33:29.111Z,4.60
2018-07-23T23:35:57.139Z,5.40
2018-07-23T23:38:25.188Z,5.50
2018-07-23T23:40:53.210Z,4.93
2018-07-23T23:43:21.235Z,5.30
2018-07-23T23:45:49.255Z,5.70
2018-07-23T23:48:17.303Z,5.90
2018-07-23T23:50:45.328Z,5.67
2018-07-23T23:53:13.352Z,5.13
2018-07-23T23:55:41.375Z,5.07
2018-07-23T23:58:09.409Z,6.47
